sensor_id;sensor_type;location;lat;lon;timestamp;P1;durP1;ratioP1;P2;durP2;ratioP2
52618;SDS011;38513;53.234;6.568;2023-06-22T00:01:58;30.67;;;25.43;;
52618;SDS011;38513;53.234;6.568;2023-06-22T00:04:24;30.10;;;24.10;;
52618;SDS011;38513;53.234;6.568;2023-06-22T00:06:51;28.67;;;25.17;;
52618;SDS011;38513;53.234;6.568;2023-06-22T00:09:17;27.23;;;22.13;;
52618;SDS011;38513;53.234;6.568;2023-06-22T00:11:43;28.70;;;23.77;;
52618;SDS011;38513;53.234;6.568;2023-06-22T00:14:09;26.88;;;22.65;;
52618;SDS011;38513;53.234;6.568;2023-06-22T00:16:35;26.52;;;22.50;;
52618;SDS011;38513;53.234;6.568;2023-06-22T00:19:01;26.17;;;22.90;;
52618;SDS011;38513;53.234;6.568;2023-06-22T00:21:28;26.85;;;20.70;;
52618;SDS011;38513;53.234;6.568;2023-06-22T00:23:55;31.73;;;24.23;;
52618;SDS011;38513;53.234;6.568;2023-06-22T00:26:22;26.63;;;21.87;;
52618;SDS011;38513;53.234;6.568;2023-06-22T00:28:49;27.58;;;22.42;;
52618;SDS011;38513;53.234;6.568;2023-06-22T00:31:15;27.33;;;22.50;;
52618;SDS011;38513;53.234;6.568;2023-06-22T00:33:41;25.17;;;21.00;;
52618;SDS011;38513;53.234;6.568;2023-06-22T00:36:08;28.48;;;21.15;;
52618;SDS011;38513;53.234;6.568;2023-06-22T00:38:38;26.53;;;20.73;;
52618;SDS011;38513;53.234;6.568;2023-06-22T00:41:05;25.65;;;19.80;;
52618;SDS011;38513;53.234;6.568;2023-06-22T00:43:31;28.73;;;21.65;;
52618;SDS011;38513;53.234;6.568;2023-06-22T00:45:57;27.40;;;22.07;;
52618;SDS011;38513;53.234;6.568;2023-06-22T00:48:23;29.13;;;22.30;;
52618;SDS011;38513;53.234;6.568;2023-06-22T00:50:50;28.63;;;23.38;;
52618;SDS011;38513;53.234;6.568;2023-06-22T00:53:18;27.50;;;22.60;;
52618;SDS011;38513;53.234;6.568;2023-06-22T00:55:45;26.83;;;21.55;;
52618;SDS011;38513;53.234;6.568;2023-06-22T00:58:18;27.98;;;21.42;;
52618;SDS011;38513;53.234;6.568;2023-06-22T01:00:46;27.73;;;21.90;;
52618;SDS011;38513;53.234;6.568;2023-06-22T01:03:13;29.40;;;22.27;;
52618;SDS011;38513;53.234;6.568;2023-06-22T01:05:39;29.67;;;22.75;;
52618;SDS011;38513;53.234;6.568;2023-06-22T01:13:32;27.27;;;23.00;;
52618;SDS011;38513;53.234;6.568;2023-06-22T01:16:05;27.85;;;23.05;;
52618;SDS011;38513;53.234;6.568;2023-06-22T01:18:34;24.33;;;20.98;;
52618;SDS011;38513;53.234;6.568;2023-06-22T01:21:02;25.40;;;22.70;;
52618;SDS011;38513;53.234;6.568;2023-06-22T01:23:37;26.33;;;23.52;;
52618;SDS011;38513;53.234;6.568;2023-06-22T01:26:14;23.45;;;20.73;;
52618;SDS011;38513;53.234;6.568;2023-06-22T01:28:50;25.08;;;22.35;;
52618;SDS011;38513;53.234;6.568;2023-06-22T01:31:22;27.63;;;23.52;;
52618;SDS011;38513;53.234;6.568;2023-06-22T01:33:59;25.15;;;22.13;;
52618;SDS011;38513;53.234;6.568;2023-06-22T01:36:26;25.83;;;22.92;;
52618;SDS011;38513;53.234;6.568;2023-06-22T01:38:53;27.50;;;24.45;;
52618;SDS011;38513;53.234;6.568;2023-06-22T01:41:19;26.92;;;23.63;;
52618;SDS011;38513;53.234;6.568;2023-06-22T01:43:46;26.70;;;23.58;;
52618;SDS011;38513;53.234;6.568;2023-06-22T01:46:12;23.17;;;20.67;;
52618;SDS011;38513;53.234;6.568;2023-06-22T01:48:39;24.43;;;20.93;;
52618;SDS011;38513;53.234;6.568;2023-06-22T01:51:06;24.70;;;22.10;;
52618;SDS011;38513;53.234;6.568;2023-06-22T01:53:32;28.30;;;23.08;;
52618;SDS011;38513;53.234;6.568;2023-06-22T01:55:58;31.55;;;25.00;;
52618;SDS011;38513;53.234;6.568;2023-06-22T01:58:25;28.33;;;24.88;;
52618;SDS011;38513;53.234;6.568;2023-06-22T02:01:11;31.80;;;24.83;;
52618;SDS011;38513;53.234;6.568;2023-06-22T02:03:41;32.90;;;26.85;;
52618;SDS011;38513;53.234;6.568;2023-06-22T02:06:16;32.40;;;26.55;;
52618;SDS011;38513;53.234;6.568;2023-06-22T02:08:46;30.70;;;24.30;;
52618;SDS011;38513;53.234;6.568;2023-06-22T02:11:13;33.92;;;26.10;;
52618;SDS011;38513;53.234;6.568;2023-06-22T02:13:40;29.83;;;24.50;;
52618;SDS011;38513;53.234;6.568;2023-06-22T02:16:09;30.37;;;24.10;;
52618;SDS011;38513;53.234;6.568;2023-06-22T02:18:35;29.87;;;24.63;;
52618;SDS011;38513;53.234;6.568;2023-06-22T02:21:02;30.10;;;24.70;;
52618;SDS011;38513;53.234;6.568;2023-06-22T02:23:28;30.95;;;24.00;;
52618;SDS011;38513;53.234;6.568;2023-06-22T02:25:54;33.40;;;26.58;;
52618;SDS011;38513;53.234;6.568;2023-06-22T02:28:20;27.05;;;23.65;;
52618;SDS011;38513;53.234;6.568;2023-06-22T02:30:46;29.45;;;24.98;;
52618;SDS011;38513;53.234;6.568;2023-06-22T02:33:13;29.40;;;24.92;;
52618;SDS011;38513;53.234;6.568;2023-06-22T02:35:39;32.72;;;28.40;;
52618;SDS011;38513;53.234;6.568;2023-06-22T02:38:10;30.48;;;27.10;;
52618;SDS011;38513;53.234;6.568;2023-06-22T02:40:36;29.58;;;24.75;;
52618;SDS011;38513;53.234;6.568;2023-06-22T02:43:02;29.52;;;26.05;;
52618;SDS011;38513;53.234;6.568;2023-06-22T02:45:29;31.77;;;27.33;;
52618;SDS011;38513;53.234;6.568;2023-06-22T02:47:55;29.27;;;25.90;;
52618;SDS011;38513;53.234;6.568;2023-06-22T02:50:21;27.63;;;24.48;;
52618;SDS011;38513;53.234;6.568;2023-06-22T02:52:47;29.15;;;25.92;;
52618;SDS011;38513;53.234;6.568;2023-06-22T02:55:14;31.88;;;26.02;;
52618;SDS011;38513;53.234;6.568;2023-06-22T02:57:40;27.17;;;22.83;;
52618;SDS011;38513;53.234;6.568;2023-06-22T03:00:12;27.97;;;23.70;;
52618;SDS011;38513;53.234;6.568;2023-06-22T03:02:43;30.13;;;24.55;;
52618;SDS011;38513;53.234;6.568;2023-06-22T03:05:09;29.80;;;24.27;;
52618;SDS011;38513;53.234;6.568;2023-06-22T03:07:38;30.38;;;25.70;;
52618;SDS011;38513;53.234;6.568;2023-06-22T03:10:07;25.75;;;22.95;;
52618;SDS011;38513;53.234;6.568;2023-06-22T03:12:34;27.00;;;22.75;;
52618;SDS011;38513;53.234;6.568;2023-06-22T03:15:00;26.48;;;23.58;;
52618;SDS011;38513;53.234;6.568;2023-06-22T03:17:26;29.00;;;25.90;;
52618;SDS011;38513;53.234;6.568;2023-06-22T03:19:52;28.92;;;24.65;;
52618;SDS011;38513;53.234;6.568;2023-06-22T03:22:19;32.87;;;27.57;;
52618;SDS011;38513;53.234;6.568;2023-06-22T03:24:45;29.00;;;25.17;;
52618;SDS011;38513;53.234;6.568;2023-06-22T03:27:14;27.77;;;24.05;;
52618;SDS011;38513;53.234;6.568;2023-06-22T03:29:40;31.27;;;26.30;;
52618;SDS011;38513;53.234;6.568;2023-06-22T03:32:06;35.35;;;29.48;;
52618;SDS011;38513;53.234;6.568;2023-06-22T03:34:32;40.13;;;32.13;;
52618;SDS011;38513;53.234;6.568;2023-06-22T03:37:01;44.20;;;34.75;;
52618;SDS011;38513;53.234;6.568;2023-06-22T03:39:28;38.42;;;31.83;;
52618;SDS011;38513;53.234;6.568;2023-06-22T03:41:54;36.53;;;31.70;;
52618;SDS011;38513;53.234;6.568;2023-06-22T03:44:25;35.08;;;29.95;;
52618;SDS011;38513;53.234;6.568;2023-06-22T03:46:51;32.15;;;28.17;;
52618;SDS011;38513;53.234;6.568;2023-06-22T03:49:20;31.30;;;27.63;;
52618;SDS011;38513;53.234;6.568;2023-06-22T03:51:46;30.85;;;27.42;;
52618;SDS011;38513;53.234;6.568;2023-06-22T03:54:12;33.03;;;27.90;;
52618;SDS011;38513;53.234;6.568;2023-06-22T03:56:39;30.63;;;26.75;;
52618;SDS011;38513;53.234;6.568;2023-06-22T03:59:05;28.52;;;24.10;;
52618;SDS011;38513;53.234;6.568;2023-06-22T04:01:31;28.88;;;25.35;;
52618;SDS011;38513;53.234;6.568;2023-06-22T04:03:57;28.05;;;25.05;;
52618;SDS011;38513;53.234;6.568;2023-06-22T04:06:26;28.95;;;24.38;;
52618;SDS011;38513;53.234;6.568;2023-06-22T04:08:55;28.77;;;25.35;;
52618;SDS011;38513;53.234;6.568;2023-06-22T04:11:21;30.15;;;25.30;;
52618;SDS011;38513;53.234;6.568;2023-06-22T04:13:47;35.72;;;29.77;;
52618;SDS011;38513;53.234;6.568;2023-06-22T04:16:14;37.65;;;29.67;;
52618;SDS011;38513;53.234;6.568;2023-06-22T04:18:40;35.90;;;30.08;;
52618;SDS011;38513;53.234;6.568;2023-06-22T04:21:07;37.67;;;30.63;;
52618;SDS011;38513;53.234;6.568;2023-06-22T04:23:33;42.03;;;32.30;;
52618;SDS011;38513;53.234;6.568;2023-06-22T04:25:59;40.42;;;32.30;;
52618;SDS011;38513;53.234;6.568;2023-06-22T04:28:25;42.88;;;32.90;;
52618;SDS011;38513;53.234;6.568;2023-06-22T04:30:51;36.22;;;30.48;;
52618;SDS011;38513;53.234;6.568;2023-06-22T04:33:23;44.10;;;34.55;;
52618;SDS011;38513;53.234;6.568;2023-06-22T04:35:49;43.30;;;33.38;;
52618;SDS011;38513;53.234;6.568;2023-06-22T04:38:15;48.45;;;35.92;;
52618;SDS011;38513;53.234;6.568;2023-06-22T04:40:42;48.53;;;35.35;;
52618;SDS011;38513;53.234;6.568;2023-06-22T04:43:08;47.10;;;35.42;;
52618;SDS011;38513;53.234;6.568;2023-06-22T04:45:35;49.13;;;37.40;;
52618;SDS011;38513;53.234;6.568;2023-06-22T04:48:05;44.83;;;36.58;;
52618;SDS011;38513;53.234;6.568;2023-06-22T04:50:31;47.40;;;38.38;;
52618;SDS011;38513;53.234;6.568;2023-06-22T04:52:57;51.53;;;39.05;;
52618;SDS011;38513;53.234;6.568;2023-06-22T04:55:23;50.58;;;39.47;;
52618;SDS011;38513;53.234;6.568;2023-06-22T04:57:50;52.03;;;40.45;;
52618;SDS011;38513;53.234;6.568;2023-06-22T05:00:20;47.63;;;39.00;;
52618;SDS011;38513;53.234;6.568;2023-06-22T05:02:48;48.72;;;40.17;;
52618;SDS011;38513;53.234;6.568;2023-06-22T05:05:14;49.75;;;41.08;;
52618;SDS011;38513;53.234;6.568;2023-06-22T05:07:45;44.35;;;38.30;;
52618;SDS011;38513;53.234;6.568;2023-06-22T05:10:13;50.55;;;41.35;;
52618;SDS011;38513;53.234;6.568;2023-06-22T05:12:40;47.63;;;39.30;;
52618;SDS011;38513;53.234;6.568;2023-06-22T05:15:07;53.55;;;43.17;;
52618;SDS011;38513;53.234;6.568;2023-06-22T05:17:34;49.85;;;41.03;;
52618;SDS011;38513;53.234;6.568;2023-06-22T05:20:00;45.97;;;38.97;;
52618;SDS011;38513;53.234;6.568;2023-06-22T05:22:31;47.88;;;40.88;;
52618;SDS011;38513;53.234;6.568;2023-06-22T05:24:57;46.30;;;40.78;;
52618;SDS011;38513;53.234;6.568;2023-06-22T05:27:23;51.47;;;42.72;;
52618;SDS011;38513;53.234;6.568;2023-06-22T05:29:49;50.45;;;41.75;;
52618;SDS011;38513;53.234;6.568;2023-06-22T05:32:16;47.80;;;39.17;;
52618;SDS011;38513;53.234;6.568;2023-06-22T05:34:42;45.40;;;38.17;;
52618;SDS011;38513;53.234;6.568;2023-06-22T05:37:08;48.60;;;39.95;;
52618;SDS011;38513;53.234;6.568;2023-06-22T05:39:34;46.38;;;39.15;;
52618;SDS011;38513;53.234;6.568;2023-06-22T05:42:04;46.78;;;39.85;;
52618;SDS011;38513;53.234;6.568;2023-06-22T05:44:30;48.15;;;39.67;;
52618;SDS011;38513;53.234;6.568;2023-06-22T05:46:57;47.40;;;39.72;;
52618;SDS011;38513;53.234;6.568;2023-06-22T05:49:23;44.90;;;37.53;;
52618;SDS011;38513;53.234;6.568;2023-06-22T05:51:54;43.50;;;36.35;;
52618;SDS011;38513;53.234;6.568;2023-06-22T05:54:24;40.85;;;33.45;;
52618;SDS011;38513;53.234;6.568;2023-06-22T05:56:51;40.97;;;35.58;;
52618;SDS011;38513;53.234;6.568;2023-06-22T05:59:17;39.27;;;32.23;;
52618;SDS011;38513;53.234;6.568;2023-06-22T06:01:43;37.72;;;31.65;;
52618;SDS011;38513;53.234;6.568;2023-06-22T06:04:09;39.13;;;31.83;;
52618;SDS011;38513;53.234;6.568;2023-06-22T06:06:35;37.20;;;31.20;;
52618;SDS011;38513;53.234;6.568;2023-06-22T06:09:03;37.00;;;30.92;;
52618;SDS011;38513;53.234;6.568;2023-06-22T06:11:29;35.67;;;30.08;;
52618;SDS011;38513;53.234;6.568;2023-06-22T06:13:56;31.48;;;26.92;;
52618;SDS011;38513;53.234;6.568;2023-06-22T06:16:22;31.35;;;27.20;;
52618;SDS011;38513;53.234;6.568;2023-06-22T06:18:48;36.80;;;30.38;;
52618;SDS011;38513;53.234;6.568;2023-06-22T06:21:15;35.42;;;30.55;;
52618;SDS011;38513;53.234;6.568;2023-06-22T06:23:42;35.28;;;30.05;;
52618;SDS011;38513;53.234;6.568;2023-06-22T06:26:08;39.08;;;32.30;;
52618;SDS011;38513;53.234;6.568;2023-06-22T06:28:34;35.95;;;31.30;;
52618;SDS011;38513;53.234;6.568;2023-06-22T06:31:00;33.53;;;29.35;;
52618;SDS011;38513;53.234;6.568;2023-06-22T06:33:27;33.38;;;29.45;;
52618;SDS011;38513;53.234;6.568;2023-06-22T06:35:53;33.78;;;29.92;;
52618;SDS011;38513;53.234;6.568;2023-06-22T06:38:20;33.22;;;28.20;;
52618;SDS011;38513;53.234;6.568;2023-06-22T06:40:46;33.22;;;28.40;;
52618;SDS011;38513;53.234;6.568;2023-06-22T06:43:14;29.13;;;25.17;;
52618;SDS011;38513;53.234;6.568;2023-06-22T06:45:40;29.57;;;24.97;;
52618;SDS011;38513;53.234;6.568;2023-06-22T06:48:06;25.98;;;22.30;;
52618;SDS011;38513;53.234;6.568;2023-06-22T06:50:32;24.50;;;21.90;;
52618;SDS011;38513;53.234;6.568;2023-06-22T06:52:58;23.48;;;20.10;;
52618;SDS011;38513;53.234;6.568;2023-06-22T06:55:24;21.65;;;19.17;;
52618;SDS011;38513;53.234;6.568;2023-06-22T06:57:50;21.25;;;18.95;;
52618;SDS011;38513;53.234;6.568;2023-06-22T07:00:18;20.13;;;17.42;;
52618;SDS011;38513;53.234;6.568;2023-06-22T07:02:44;20.25;;;17.45;;
52618;SDS011;38513;53.234;6.568;2023-06-22T07:05:13;20.33;;;18.07;;
52618;SDS011;38513;53.234;6.568;2023-06-22T07:07:39;20.08;;;17.17;;
52618;SDS011;38513;53.234;6.568;2023-06-22T07:10:06;21.63;;;18.17;;
52618;SDS011;38513;53.234;6.568;2023-06-22T07:12:33;20.17;;;17.77;;
52618;SDS011;38513;53.234;6.568;2023-06-22T07:15:06;18.73;;;16.73;;
52618;SDS011;38513;53.234;6.568;2023-06-22T07:17:37;20.07;;;17.07;;
52618;SDS011;38513;53.234;6.568;2023-06-22T07:20:06;18.75;;;16.63;;
52618;SDS011;38513;53.234;6.568;2023-06-22T07:22:37;17.73;;;15.53;;
52618;SDS011;38513;53.234;6.568;2023-06-22T07:25:03;18.58;;;15.95;;
52618;SDS011;38513;53.234;6.568;2023-06-22T07:27:35;16.27;;;14.32;;
52618;SDS011;38513;53.234;6.568;2023-06-22T07:30:02;15.95;;;13.38;;
52618;SDS011;38513;53.234;6.568;2023-06-22T07:32:29;17.45;;;14.30;;
52618;SDS011;38513;53.234;6.568;2023-06-22T07:34:55;15.48;;;11.93;;
52618;SDS011;38513;53.234;6.568;2023-06-22T07:37:21;14.67;;;12.47;;
52618;SDS011;38513;53.234;6.568;2023-06-22T07:39:47;13.30;;;11.15;;
52618;SDS011;38513;53.234;6.568;2023-06-22T07:42:15;20.53;;;9.67;;
52618;SDS011;38513;53.234;6.568;2023-06-22T07:44:43;11.77;;;8.70;;
52618;SDS011;38513;53.234;6.568;2023-06-22T07:47:10;13.07;;;10.18;;
52618;SDS011;38513;53.234;6.568;2023-06-22T07:49:36;12.63;;;10.10;;
52618;SDS011;38513;53.234;6.568;2023-06-22T07:52:02;11.70;;;9.52;;
52618;SDS011;38513;53.234;6.568;2023-06-22T07:54:30;12.70;;;10.02;;
52618;SDS011;38513;53.234;6.568;2023-06-22T07:56:56;14.68;;;10.60;;
52618;SDS011;38513;53.234;6.568;2023-06-22T07:59:22;12.38;;;10.38;;
52618;SDS011;38513;53.234;6.568;2023-06-22T08:01:48;11.25;;;9.75;;
52618;SDS011;38513;53.234;6.568;2023-06-22T08:04:14;11.77;;;10.10;;
52618;SDS011;38513;53.234;6.568;2023-06-22T08:06:41;12.85;;;10.48;;
52618;SDS011;38513;53.234;6.568;2023-06-22T08:09:07;13.00;;;10.75;;
52618;SDS011;38513;53.234;6.568;2023-06-22T08:11:33;11.20;;;8.52;;
52618;SDS011;38513;53.234;6.568;2023-06-22T08:13:59;10.73;;;8.20;;
52618;SDS011;38513;53.234;6.568;2023-06-22T08:16:28;12.98;;;8.48;;
52618;SDS011;38513;53.234;6.568;2023-06-22T08:18:54;11.00;;;9.02;;
52618;SDS011;38513;53.234;6.568;2023-06-22T08:21:20;11.32;;;8.32;;
52618;SDS011;38513;53.234;6.568;2023-06-22T08:23:47;11.43;;;8.75;;
52618;SDS011;38513;53.234;6.568;2023-06-22T08:26:14;11.57;;;8.05;;
52618;SDS011;38513;53.234;6.568;2023-06-22T08:28:40;10.55;;;8.20;;
52618;SDS011;38513;53.234;6.568;2023-06-22T08:31:06;10.50;;;7.60;;
52618;SDS011;38513;53.234;6.568;2023-06-22T08:33:33;10.65;;;7.25;;
52618;SDS011;38513;53.234;6.568;2023-06-22T08:35:59;11.23;;;8.10;;
52618;SDS011;38513;53.234;6.568;2023-06-22T08:38:25;11.75;;;8.57;;
52618;SDS011;38513;53.234;6.568;2023-06-22T08:40:51;9.47;;;7.53;;
52618;SDS011;38513;53.234;6.568;2023-06-22T08:43:17;11.50;;;8.93;;
52618;SDS011;38513;53.234;6.568;2023-06-22T08:45:44;11.40;;;7.88;;
52618;SDS011;38513;53.234;6.568;2023-06-22T08:48:10;10.38;;;8.15;;
52618;SDS011;38513;53.234;6.568;2023-06-22T08:50:40;10.13;;;8.20;;
52618;SDS011;38513;53.234;6.568;2023-06-22T08:53:06;11.13;;;8.02;;
52618;SDS011;38513;53.234;6.568;2023-06-22T08:55:33;10.27;;;7.82;;
52618;SDS011;38513;53.234;6.568;2023-06-22T08:58:02;10.23;;;7.22;;
52618;SDS011;38513;53.234;6.568;2023-06-22T09:00:29;10.57;;;6.93;;
52618;SDS011;38513;53.234;6.568;2023-06-22T09:02:59;8.65;;;6.10;;
52618;SDS011;38513;53.234;6.568;2023-06-22T09:05:26;9.63;;;6.28;;
52618;SDS011;38513;53.234;6.568;2023-06-22T09:07:52;10.48;;;6.93;;
52618;SDS011;38513;53.234;6.568;2023-06-22T09:10:20;9.15;;;6.78;;
52618;SDS011;38513;53.234;6.568;2023-06-22T09:12:46;10.95;;;8.88;;
52618;SDS011;38513;53.234;6.568;2023-06-22T09:15:12;9.82;;;6.50;;
52618;SDS011;38513;53.234;6.568;2023-06-22T09:17:40;9.05;;;5.82;;
52618;SDS011;38513;53.234;6.568;2023-06-22T09:20:06;9.32;;;6.40;;
52618;SDS011;38513;53.234;6.568;2023-06-22T09:22:35;9.95;;;6.60;;
52618;SDS011;38513;53.234;6.568;2023-06-22T09:25:01;8.45;;;6.25;;
52618;SDS011;38513;53.234;6.568;2023-06-22T09:27:28;8.40;;;6.07;;
52618;SDS011;38513;53.234;6.568;2023-06-22T09:29:54;9.07;;;6.90;;
52618;SDS011;38513;53.234;6.568;2023-06-22T09:32:20;9.35;;;6.88;;
52618;SDS011;38513;53.234;6.568;2023-06-22T09:34:47;9.25;;;6.60;;
52618;SDS011;38513;53.234;6.568;2023-06-22T09:37:13;8.95;;;6.50;;
52618;SDS011;38513;53.234;6.568;2023-06-22T09:39:39;10.27;;;6.72;;
52618;SDS011;38513;53.234;6.568;2023-06-22T09:42:05;11.82;;;8.02;;
52618;SDS011;38513;53.234;6.568;2023-06-22T09:44:31;10.13;;;6.63;;
52618;SDS011;38513;53.234;6.568;2023-06-22T09:46:58;11.63;;;8.15;;
52618;SDS011;38513;53.234;6.568;2023-06-22T09:49:24;9.68;;;7.20;;
52618;SDS011;38513;53.234;6.568;2023-06-22T09:51:50;10.80;;;8.33;;
52618;SDS011;38513;53.234;6.568;2023-06-22T09:54:17;10.47;;;7.00;;
52618;SDS011;38513;53.234;6.568;2023-06-22T09:56:43;10.20;;;7.63;;
52618;SDS011;38513;53.234;6.568;2023-06-22T09:59:09;12.90;;;9.45;;
52618;SDS011;38513;53.234;6.568;2023-06-22T10:01:35;9.63;;;7.07;;
52618;SDS011;38513;53.234;6.568;2023-06-22T10:04:02;10.00;;;6.68;;
52618;SDS011;38513;53.234;6.568;2023-06-22T10:06:28;9.23;;;6.60;;
52618;SDS011;38513;53.234;6.568;2023-06-22T10:08:54;11.02;;;7.50;;
52618;SDS011;38513;53.234;6.568;2023-06-22T10:11:21;9.48;;;7.10;;
52618;SDS011;38513;53.234;6.568;2023-06-22T10:13:52;9.07;;;7.83;;
52618;SDS011;38513;53.234;6.568;2023-06-22T10:16:18;12.43;;;7.65;;
52618;SDS011;38513;53.234;6.568;2023-06-22T10:18:44;10.73;;;6.63;;
52618;SDS011;38513;53.234;6.568;2023-06-22T10:21:10;8.30;;;6.43;;
52618;SDS011;38513;53.234;6.568;2023-06-22T10:23:36;10.10;;;6.28;;
52618;SDS011;38513;53.234;6.568;2023-06-22T10:26:02;9.73;;;7.43;;
52618;SDS011;38513;53.234;6.568;2023-06-22T10:28:28;10.45;;;7.57;;
52618;SDS011;38513;53.234;6.568;2023-06-22T10:30:54;10.07;;;7.57;;
52618;SDS011;38513;53.234;6.568;2023-06-22T10:33:20;8.18;;;6.47;;
52618;SDS011;38513;53.234;6.568;2023-06-22T10:35:46;9.52;;;7.53;;
52618;SDS011;38513;53.234;6.568;2023-06-22T10:38:13;10.27;;;7.33;;
52618;SDS011;38513;53.234;6.568;2023-06-22T10:40:39;9.73;;;7.00;;
52618;SDS011;38513;53.234;6.568;2023-06-22T10:43:05;9.88;;;7.18;;
52618;SDS011;38513;53.234;6.568;2023-06-22T10:45:31;11.38;;;8.15;;
52618;SDS011;38513;53.234;6.568;2023-06-22T10:47:57;9.88;;;7.38;;
52618;SDS011;38513;53.234;6.568;2023-06-22T10:50:24;10.50;;;7.85;;
52618;SDS011;38513;53.234;6.568;2023-06-22T10:52:50;9.48;;;7.10;;
52618;SDS011;38513;53.234;6.568;2023-06-22T10:55:16;10.23;;;7.22;;
52618;SDS011;38513;53.234;6.568;2023-06-22T10:57:43;9.23;;;7.38;;
52618;SDS011;38513;53.234;6.568;2023-06-22T11:00:12;10.55;;;7.22;;
52618;SDS011;38513;53.234;6.568;2023-06-22T11:02:39;8.25;;;6.40;;
52618;SDS011;38513;53.234;6.568;2023-06-22T11:05:05;9.52;;;7.43;;
52618;SDS011;38513;53.234;6.568;2023-06-22T11:07:32;10.03;;;7.07;;
52618;SDS011;38513;53.234;6.568;2023-06-22T11:09:58;8.45;;;6.00;;
52618;SDS011;38513;53.234;6.568;2023-06-22T11:12:24;8.82;;;6.40;;
52618;SDS011;38513;53.234;6.568;2023-06-22T11:14:50;11.05;;;7.65;;
52618;SDS011;38513;53.234;6.568;2023-06-22T11:17:17;9.55;;;7.43;;
52618;SDS011;38513;53.234;6.568;2023-06-22T11:19:43;12.15;;;9.13;;
52618;SDS011;38513;53.234;6.568;2023-06-22T11:22:10;10.40;;;7.20;;
52618;SDS011;38513;53.234;6.568;2023-06-22T11:24:36;8.70;;;6.45;;
52618;SDS011;38513;53.234;6.568;2023-06-22T11:27:02;11.40;;;7.30;;
52618;SDS011;38513;53.234;6.568;2023-06-22T11:29:28;11.63;;;7.87;;
52618;SDS011;38513;53.234;6.568;2023-06-22T11:31:55;12.40;;;8.20;;
52618;SDS011;38513;53.234;6.568;2023-06-22T11:34:21;10.95;;;8.15;;
52618;SDS011;38513;53.234;6.568;2023-06-22T11:36:47;9.45;;;7.22;;
52618;SDS011;38513;53.234;6.568;2023-06-22T11:39:13;11.17;;;7.80;;
52618;SDS011;38513;53.234;6.568;2023-06-22T11:41:40;10.20;;;7.22;;
52618;SDS011;38513;53.234;6.568;2023-06-22T11:44:07;9.70;;;7.03;;
52618;SDS011;38513;53.234;6.568;2023-06-22T11:46:33;12.93;;;8.55;;
52618;SDS011;38513;53.234;6.568;2023-06-22T11:49:00;11.80;;;7.78;;
52618;SDS011;38513;53.234;6.568;2023-06-22T11:51:26;10.83;;;8.13;;
52618;SDS011;38513;53.234;6.568;2023-06-22T11:53:53;9.50;;;6.90;;
52618;SDS011;38513;53.234;6.568;2023-06-22T11:56:19;9.07;;;6.60;;
52618;SDS011;38513;53.234;6.568;2023-06-22T11:58:45;11.05;;;8.07;;
52618;SDS011;38513;53.234;6.568;2023-06-22T12:01:11;10.27;;;7.25;;
52618;SDS011;38513;53.234;6.568;2023-06-22T12:03:40;9.38;;;6.80;;
52618;SDS011;38513;53.234;6.568;2023-06-22T12:06:08;9.43;;;6.60;;
52618;SDS011;38513;53.234;6.568;2023-06-22T12:08:34;10.30;;;6.90;;
52618;SDS011;38513;53.234;6.568;2023-06-22T12:11:00;9.68;;;6.22;;
52618;SDS011;38513;53.234;6.568;2023-06-22T12:13:26;9.95;;;6.38;;
52618;SDS011;38513;53.234;6.568;2023-06-22T12:15:52;9.77;;;7.13;;
52618;SDS011;38513;53.234;6.568;2023-06-22T12:18:19;10.05;;;6.65;;
52618;SDS011;38513;53.234;6.568;2023-06-22T12:20:46;9.15;;;5.85;;
52618;SDS011;38513;53.234;6.568;2023-06-22T12:23:13;8.90;;;5.75;;
52618;SDS011;38513;53.234;6.568;2023-06-22T12:25:39;8.82;;;5.50;;
52618;SDS011;38513;53.234;6.568;2023-06-22T12:28:05;9.65;;;6.38;;
52618;SDS011;38513;53.234;6.568;2023-06-22T12:30:34;9.98;;;7.22;;
52618;SDS011;38513;53.234;6.568;2023-06-22T12:33:00;10.27;;;6.25;;
52618;SDS011;38513;53.234;6.568;2023-06-22T12:35:26;8.32;;;5.78;;
52618;SDS011;38513;53.234;6.568;2023-06-22T12:37:52;8.30;;;6.07;;
52618;SDS011;38513;53.234;6.568;2023-06-22T12:40:21;9.52;;;5.72;;
52618;SDS011;38513;53.234;6.568;2023-06-22T12:42:47;9.57;;;5.32;;
52618;SDS011;38513;53.234;6.568;2023-06-22T12:45:14;9.18;;;5.50;;
52618;SDS011;38513;53.234;6.568;2023-06-22T12:47:40;8.52;;;4.97;;
52618;SDS011;38513;53.234;6.568;2023-06-22T12:50:07;8.57;;;5.60;;
52618;SDS011;38513;53.234;6.568;2023-06-22T12:52:33;7.75;;;5.53;;
52618;SDS011;38513;53.234;6.568;2023-06-22T12:54:59;8.52;;;5.57;;
52618;SDS011;38513;53.234;6.568;2023-06-22T12:57:25;8.52;;;6.05;;
52618;SDS011;38513;53.234;6.568;2023-06-22T12:59:51;8.48;;;5.35;;
52618;SDS011;38513;53.234;6.568;2023-06-22T13:02:17;9.00;;;5.47;;
52618;SDS011;38513;53.234;6.568;2023-06-22T13:04:44;7.15;;;4.88;;
52618;SDS011;38513;53.234;6.568;2023-06-22T13:07:11;7.47;;;4.47;;
52618;SDS011;38513;53.234;6.568;2023-06-22T13:09:37;8.88;;;4.50;;
52618;SDS011;38513;53.234;6.568;2023-06-22T13:12:06;7.90;;;4.18;;
52618;SDS011;38513;53.234;6.568;2023-06-22T13:14:32;7.95;;;4.25;;
52618;SDS011;38513;53.234;6.568;2023-06-22T13:16:59;7.90;;;4.10;;
52618;SDS011;38513;53.234;6.568;2023-06-22T13:19:27;6.95;;;4.07;;
52618;SDS011;38513;53.234;6.568;2023-06-22T13:21:57;8.85;;;4.18;;
52618;SDS011;38513;53.234;6.568;2023-06-22T13:24:23;8.50;;;4.35;;
52618;SDS011;38513;53.234;6.568;2023-06-22T13:26:50;7.05;;;4.13;;
52618;SDS011;38513;53.234;6.568;2023-06-22T13:29:16;6.85;;;3.80;;
52618;SDS011;38513;53.234;6.568;2023-06-22T13:31:42;7.97;;;4.47;;
52618;SDS011;38513;53.234;6.568;2023-06-22T13:34:08;7.57;;;3.75;;
52618;SDS011;38513;53.234;6.568;2023-06-22T13:36:34;7.82;;;3.40;;
52618;SDS011;38513;53.234;6.568;2023-06-22T13:39:00;7.55;;;3.88;;
52618;SDS011;38513;53.234;6.568;2023-06-22T13:41:26;7.73;;;3.63;;
52618;SDS011;38513;53.234;6.568;2023-06-22T13:43:52;8.02;;;3.63;;
52618;SDS011;38513;53.234;6.568;2023-06-22T13:46:18;6.57;;;3.53;;
52618;SDS011;38513;53.234;6.568;2023-06-22T13:48:44;6.55;;;3.40;;
52618;SDS011;38513;53.234;6.568;2023-06-22T13:51:11;6.53;;;3.55;;
52618;SDS011;38513;53.234;6.568;2023-06-22T13:53:37;6.43;;;3.58;;
52618;SDS011;38513;53.234;6.568;2023-06-22T13:56:03;7.37;;;3.47;;
52618;SDS011;38513;53.234;6.568;2023-06-22T13:58:32;6.22;;;2.95;;
52618;SDS011;38513;53.234;6.568;2023-06-22T14:00:58;6.68;;;3.35;;
52618;SDS011;38513;53.234;6.568;2023-06-22T14:03:24;6.85;;;3.38;;
52618;SDS011;38513;53.234;6.568;2023-06-22T14:05:50;5.88;;;3.03;;
52618;SDS011;38513;53.234;6.568;2023-06-22T14:08:22;6.50;;;3.20;;
52618;SDS011;38513;53.234;6.568;2023-06-22T14:10:53;7.47;;;2.95;;
52618;SDS011;38513;53.234;6.568;2023-06-22T14:13:19;6.40;;;3.03;;
52618;SDS011;38513;53.234;6.568;2023-06-22T14:15:45;6.85;;;2.88;;
52618;SDS011;38513;53.234;6.568;2023-06-22T14:18:13;5.85;;;2.90;;
52618;SDS011;38513;53.234;6.568;2023-06-22T14:20:40;6.20;;;2.65;;
52618;SDS011;38513;53.234;6.568;2023-06-22T14:23:06;7.63;;;2.67;;
52618;SDS011;38513;53.234;6.568;2023-06-22T14:25:32;4.70;;;2.10;;
52618;SDS011;38513;53.234;6.568;2023-06-22T14:27:58;5.57;;;2.17;;
52618;SDS011;38513;53.234;6.568;2023-06-22T14:30:24;6.25;;;2.25;;
52618;SDS011;38513;53.234;6.568;2023-06-22T14:32:50;5.82;;;2.25;;
52618;SDS011;38513;53.234;6.568;2023-06-22T14:35:16;9.23;;;2.47;;